• Join FlightAware (Why Join?)
  • Login
  • US Flag 
08:55PM EST


 

Airport Tracker/Info


-or-


 

Live Flight TrackerFlight Track Log ✈ SWA1096 ✈ 23-Apr-2013 ✈ KLAS - KSLC

Flight Track Log - Related Links

Times and Time Zones

All times are in EDT time to prevent confusion due to time zone crossing. See the SWA1096 flight status page for this flight to view local times or setup timezone preferences in your user account.

Time Position Orientation Groundspeed Altitude Reporting Facility
EDT Latitude Longitude Course Direction KTS MPH feet Rate Location/Type
09:06AM 36.0747 -115.1128 87° East 162 186 3,500  Level Los Angeles Center
09:07AM 36.0775 -115.0558 87° East 214 246 5,400 2,340 Climbing Los Angeles Center
09:07AM 36.0778 -115.0117 90° East 226 260 6,900 2,880 Climbing Los Angeles Center
09:08AM 36.0803 -114.9144 88° East 275 316 10,200 3,000 Climbing Los Angeles Center
09:09AM 36.1006 -114.8011 77° East 323 372 13,000 2,940 Climbing Los Angeles Center
09:10AM 36.1278 -114.6814 74° East 356 410 16,200 2,820 Climbing Los Angeles Center
09:11AM 36.2186 -114.6206 28° Northeast 370 426 18,800 3,000 Climbing Los Angeles Center
09:12AM 36.3294 -114.5367 31° Northeast 386 444 22,300 2,760 Climbing Los Angeles Center
09:13AM 36.4244 -114.4664 31° Northeast 394 453 24,500 2,160 Climbing Los Angeles Center
09:14AM 36.5264 -114.3925 30° Northeast 412 474 26,700 2,280 Climbing Los Angeles Center
09:15AM 36.6308 -114.3172 30° Northeast 427 491 29,100 2,160 Climbing Los Angeles Center
09:16AM 36.7342 -114.2406 31° Northeast 432 497 31,200 1,800 Climbing Los Angeles Center
09:17AM 36.8383 -114.1647 30° Northeast 433 498 32,800 840 Climbing Los Angeles Center
09:18AM 36.9450 -114.0847 31° Northeast 442 509 33,000 60 Climbing Los Angeles Center
09:19AM 37.0503 -114.0072 30° Northeast 441 507 33,000  Level Los Angeles Center
09:21AM 37.1611 -113.9278 30° Northeast 441 507 33,000  Level Salt Lake Center
09:22AM 37.2672 -113.8478 31° Northeast 444 511 33,000  Level Salt Lake Center
09:23AM 37.3733 -113.7683 31° Northeast 445 512 33,000  Level Salt Lake Center
09:24AM 37.4778 -113.6878 31° Northeast 441 507 33,000  Level Salt Lake Center
09:25AM 37.5847 -113.6086 30° Northeast 444 511 33,000  Level Salt Lake Center
09:26AM 37.6922 -113.5272 31° Northeast 449 517 33,000  Level Salt Lake Center
09:27AM 37.7994 -113.4450 31° Northeast 448 516 33,000  Level Salt Lake Center
09:28AM 37.9286 -113.3464 31° Northeast 449 517 33,000  Level Salt Lake Center
09:29AM 38.0361 -113.2650 31° Northeast 449 517 33,000  Level Salt Lake Center
09:30AM 38.1431 -113.1819 31° Northeast 448 516 33,000  Level Salt Lake Center
09:31AM 38.2503 -113.0983 31° Northeast 450 518 33,000  Level Salt Lake Center
09:32AM 38.3583 -113.0158 31° Northeast 451 519 33,000  Level Salt Lake Center
09:33AM 38.4700 -112.9517 24° Northeast 443 510 33,000  Level Salt Lake Center
09:34AM 38.5803 -112.8956 22° Northeast 431 496 33,000 -420 Level Salt Lake Center
09:35AM 38.6919 -112.8358 23° Northeast 433 498 32,200 -900 Descending Salt Lake Center
09:36AM 38.8039 -112.7758 23° Northeast 436 502 31,200 -600 Descending Salt Lake Center
09:37AM 38.9144 -112.7158 23° Northeast 432 497 31,000 -120 Descending Salt Lake Center
09:38AM 39.0236 -112.6558 23° Northeast 427 491 31,000 -120 Level Salt Lake Center
09:39AM 39.1328 -112.5972 23° Northeast 426 490 30,800 -1,080 Descending Salt Lake Center
09:40AM 39.2450 -112.5372 22° Northeast 418 481 28,800 -1,980 Descending Salt Lake Center
09:41AM 39.3458 -112.4822 23° Northeast 397 457 26,800 -2,040 Descending Salt Lake Center
09:42AM 39.4597 -112.4150 24° Northeast 374 430 24,700 -1,920 Descending Salt Lake Center
09:43AM 39.5492 -112.3639 24° Northeast 354 407 22,900 -1,680 Descending Salt Lake Center
09:44AM 39.6350 -112.3147 24° Northeast 340 391 21,300 -1,620 Descending Salt Lake Center
09:45AM 39.7181 -112.2678 23° Northeast 329 379 19,700 -1,620 Descending Salt Lake Center
09:46AM 39.7975 -112.2222 24° Northeast 322 371 18,100 -1,500 Descending Salt Lake Center
09:47AM 39.8475 -112.2031 16° North 306 352 17,300 -1,500 Descending Salt Lake Center
09:47AM 39.8708 -112.1897 24° Northeast 303 349 16,800 -1,620 Descending Salt Lake Center
09:48AM 39.9364 -112.1514 24° Northeast 294 338 15,400 -1,440 Descending Salt Lake Center
09:48AM 39.9469 -112.1331 53° Northeast 293 337 15,200 -1,320 Descending Salt Lake Center
09:49AM 40.0133 -112.1172 10° North 285 328 14,100 -1,140 Descending Salt Lake Center
09:49AM 40.0214 -112.1042 51° Northeast 283 326 14,100 -900 Level Salt Lake Center
09:50AM 40.0897 -112.0889 10° North 287 330 13,200 -1,020 Descending Salt Lake Center
09:50AM 40.0986 -112.0775 44° Northeast 285 328 13,100 -1,020 Descending Salt Lake Center
09:51AM 40.1664 -112.0631 North 285 328 12,200 -1,200 Descending Salt Lake Center
09:51AM 40.1903 -112.0447 30° Northeast 284 327 11,900 -840 Descending Salt Lake Center
09:52AM 40.2481 -112.0300 11° North 283 326 11,300 -540 Descending Salt Lake Center
09:53AM 40.3244 -112.0017 16° North 284 327 11,000 -600 Descending Salt Lake Center
09:54AM 40.4103 -111.9781 12° North 273 314 10,100 -1,080 Descending Salt Lake Center
09:55AM 40.4947 -111.9806 359° North 265 305 8,600 -1,200 Descending Salt Lake Center
09:56AM 40.5619 -111.9833 358° North 259 298 7,600 -900 Descending Salt Lake Center
09:57AM 40.6311 -111.9853 359° North 237 273 6,800 -780 Descending Salt Lake Center
09:58AM 40.6878 -111.9886 357° North 208 239 6,100 -900 Descending Salt Lake Center
09:59AM 40.7339 -111.9928 356° North 156 180 5,100 -840 Descending Salt Lake Center
10:00AM 40.7694 -111.9939 359° North 137 158 4,400 -660 Descending Salt Lake Center
10:02AM 40.7833 -111.9667 North  Level FlightAware Approximate
10:09AM 40.7884 -111.9778 North  Level Estimated